ADDS METAR Data INFO
IDs: Format: Raw Decoded Include TAF

Data at: 2054 UTC 24 Jun 2017

KSAA 242035Z AUTO 33007KT 282V002 10SM CLR 21/M02 A3038 RMK AO2
KSAA 242015Z AUTO 32008KT 302V012 10SM CLR 21/M02 A3038 RMK AO2
KSAA 241955Z AUTO 32007KT 282V032 10SM CLR 21/M02 A3039 RMK AO2
KSAA 241935Z AUTO 34011G20KT 312V022 10SM CLR 21/M02 A3039 RMK AO2
KSAA 241915Z AUTO 33009KT 10SM CLR 20/M03 A3039 RMK AO2
KSAA 241855Z AUTO 33005G15KT 10SM CLR 20/M02 A3039 RMK AO2
KSAA 241835Z AUTO 32006G16KT 10SM CLR 20/M02 A3039 RMK AO2
KSAA 241810Z AUTO 33007G16KT 10SM CLR 19/M01 A3039 RMK AO2
KSAA 241755Z AUTO 33006KT 10SM CLR 18/M01 A3040 RMK AO2
KSAA 241735Z AUTO 33009G15KT 10SM CLR 18/00 A3040 RMK AO2
KSAA 241715Z AUTO 34004KT 10SM CLR 17/01 A3040 RMK AO2
KSAA 241655Z AUTO 33007KT 10SM CLR 17/01 A3040 RMK AO2
KSAA 241635Z AUTO 32006G15KT 10SM CLR 16/01 A3040 RMK AO2
KSAA 241615Z AUTO 32006KT 282V342 10SM CLR 15/02 A3040 RMK AO2
KSAA 241555Z AUTO 36010G15KT 10SM CLR 14/01 A3040 RMK AO2
KSAA 241535Z AUTO 35007KT 312V032 10SM CLR 13/01 A3040 RMK AO2
KSAA 241515Z AUTO 30005KT 10SM CLR 12/00 A3040 RMK AO2
KSAA 241455Z AUTO 01009KT 10SM CLR 11/01 A3040 RMK AO2
KSAA 241435Z AUTO 30008KT 272V012 10SM CLR 11/01 A3040 RMK AO2
KSAA 241415Z AUTO 36008KT 312V022 10SM CLR 10/01 A3039 RMK AO2
KSAA 241355Z AUTO 31007KT 282V352 10SM CLR 10/01 A3039 RMK AO2
KSAA 241335Z AUTO 33003KT 10SM CLR 08/00 A3038 RMK AO2
KSAA 241315Z AUTO 33003KT 10SM CLR 08/00 A3037 RMK AO2
KSAA 241255Z AUTO 00000KT 10SM CLR 07/00 A3036 RMK AO2
KSAA 241235Z AUTO 00000KT 10SM CLR 06/00 A3036 RMK AO2
KSAA 241215Z AUTO 01004KT 10SM CLR 05/00 A3036 RMK AO2
KSAA 241155Z AUTO 25005KT 10SM CLR 04/M01 A3035 RMK AO2
KSAA 241135Z AUTO 26004KT 10SM CLR 04/M01 A3035 RMK AO2
KSAA 241115Z AUTO 12003KT 10SM CLR 03/M01 A3034 RMK AO2
KSAA 241055Z AUTO 24003KT 10SM CLR 04/00 A3033 RMK AO2
KSAA 241035Z AUTO 13006KT 10SM CLR 04/00 A3033 RMK AO2
KSAA 241015Z AUTO 10004KT 10SM CLR 05/00 A3032 RMK AO2
KSAA 240955Z AUTO 24007KT 10SM CLR 06/00 A3032 RMK AO2
KSAA 240935Z AUTO 25007KT 10SM CLR 06/01 A3032 RMK AO2
KSAA 240915Z AUTO 25009KT 10SM CLR 06/01 A3032 RMK AO2
KSAA 240855Z AUTO 26007KT 10SM CLR 05/01 A3032 RMK AO2
KSAA 240835Z AUTO 28006KT 10SM CLR 05/01 A3032 RMK AO2
KSAA 240815Z AUTO 02009KT 10SM CLR 07/02 A3031 RMK AO2
KSAA 240755Z AUTO 09010KT 10SM CLR 08/02 A3031 RMK AO2
KSAA 240735Z AUTO 08005KT 10SM CLR 08/02 A3031 RMK AO2
KSAA 240715Z AUTO 11011KT 10SM CLR 09/01 A3031 RMK AO2
KSAA 240655Z AUTO 13010G14KT 10SM CLR 11/03 A3030 RMK AO2
KSAA 240635Z AUTO 13011KT 10SM CLR 11/03 A3030 RMK AO2
KSAA 240615Z AUTO 14008KT 102V162 10SM CLR 11/03 A3030 RMK AO2
KSAA 240555Z AUTO 18005KT 10SM CLR 12/04 A3030 RMK AO2
KSAA 240535Z AUTO 20006KT 10SM CLR 12/03 A3030 RMK AO2
KSAA 240515Z AUTO 18003KT 10SM CLR 12/02 A3030 RMK AO2
KSAA 240455Z AUTO 19005KT 10SM CLR 11/M01 A3030 RMK AO2
KSAA 240435Z AUTO 00000KT 10SM CLR 12/M01 A3030 RMK AO2
KSAA 240415Z AUTO 20007KT 10SM CLR 13/M01 A3029 RMK AO2
KSAA 240355Z AUTO 30004KT 10SM CLR 13/M01 A3028 RMK AO2
KSAA 240335Z AUTO 00000KT 10SM CLR 14/M01 A3027 RMK AO2
KSAA 240315Z AUTO 00000KT 10SM CLR 15/00 A3026 RMK AO2
KSAA 240255Z AUTO 02005KT 10SM CLR 16/00 A3027 RMK AO2
KSAA 240235Z AUTO 02007KT 10SM CLR 17/00 A3027 RMK AO2
KSAA 240215Z AUTO 35005KT 10SM CLR 18/M01 A3026 RMK AO2
KSAA 240155Z AUTO 31009KT 10SM CLR 20/M01 A3026 RMK AO2
KSAA 240135Z AUTO 32010KT 10SM CLR 20/M02 A3026 RMK AO2
KSAA 240115Z AUTO 33012G19KT 10SM CLR 21/M03 A3026 RMK AO2
KSAA 240055Z AUTO 33009G18KT 10SM CLR 21/M03 A3026 RMK AO2
KSAA 240035Z AUTO 33013G18KT 10SM CLR 22/M04 A3026 RMK AO2
KSAA 240015Z AUTO 34008G17KT 302V012 10SM CLR 22/M04 A3025 RMK AO2
KSAA 232355Z AUTO 30012KT 10SM CLR 23/M03 A3025 RMK AO2
KSAA 232335Z AUTO 31011G19KT 10SM SCT100 23/M03 A3025 RMK AO2
KSAA 232315Z AUTO 27008G16KT 10SM SCT100 23/M03 A3025 RMK AO2
KSAA 232255Z AUTO 34009G17KT 10SM SCT090 23/M02 A3025 RMK AO2
KSAA 232235Z AUTO 30009G21KT 292V352 10SM SCT090 22/M02 A3025 RMK AO2
KSAA 232215Z AUTO 29006G19KT 10SM SCT090 23/M02 A3025 RMK AO2
KSAA 232155Z AUTO 32011G19KT 10SM CLR 22/M02 A3025 RMK AO2
KSAA 232135Z AUTO 33011G21KT 302V002 10SM CLR 22/M02 A3025 RMK AO2
KSAA 232115Z AUTO 34013G18KT 10SM SCT085 22/M01 A3026 RMK AO2
KSAA 232055Z AUTO 34011G17KT 312V012 10SM SCT085 22/00 A3026 RMK AO2
KSAA 232035Z AUTO 30011G21KT 10SM SCT085 21/00 A3027 RMK AO2
KSAA 232015Z AUTO 33014G23KT 10SM SCT085 22/00 A3027 RMK AO2
KSAA 231955Z AUTO 33014G21KT 10SM CLR 21/00 A3027 RMK AO2
KSAA 231935Z AUTO 35012G20KT 10SM CLR 21/00 A3028 RMK AO2
KSAA 231915Z AUTO 36013G20KT 322V022 10SM CLR 20/00 A3028 RMK AO2
KSAA 231855Z AUTO 36011G19KT 312V032 10SM CLR 20/00 A3029 RMK AO2
KSAA 231835Z AUTO 36010G17KT 312V032 10SM CLR 19/01 A3029 RMK AO2
KSAA 231815Z AUTO 33012G18KT 10SM CLR 19/01 A3029 RMK AO2
KSAA 231755Z AUTO 33009G17KT 312V012 10SM CLR 19/01 A3029 RMK AO2
KSAA 231735Z AUTO 33008G14KT 10SM CLR 18/01 A3029 RMK AO2
KSAA 231715Z AUTO 00000KT 10SM CLR 17/01 A3029 RMK AO2
KSAA 231655Z AUTO 34008KT 10SM CLR 17/02 A3030 RMK AO2
KSAA 231635Z AUTO 31004KT 10SM CLR 16/02 A3029 RMK AO2
KSAA 231615Z AUTO 01003G14KT 10SM CLR 15/02 A3029 RMK AO2
KSAA 231555Z AUTO 00000KT 10SM CLR 14/02 A3030 RMK AO2
KSAA 231535Z AUTO 05003KT 10SM CLR 13/02 A3030 RMK AO2
KSAA 231515Z AUTO 10007KT 10SM CLR 13/02 A3030 RMK AO2
KSAA 231455Z AUTO 26003KT 10SM CLR 12/01 A3031 RMK AO2
KSAA 231435Z AUTO 17003KT 10SM CLR 12/01 A3030 RMK AO2
KSAA 231415Z AUTO 18005KT 10SM CLR 11/01 A3031 RMK AO2
KSAA 231355Z AUTO 18005KT 10SM CLR 11/01 A3030 RMK AO2
KSAA 231335Z AUTO 16006KT 10SM CLR 10/01 A3030 RMK AO2
KSAA 231315Z AUTO 14005KT 10SM CLR 09/01 A3030 RMK AO2
KSAA 231255Z AUTO 12006KT 10SM CLR 08/01 A3030 RMK AO2
KSAA 231235Z AUTO 10004KT 10SM CLR 07/01 A3030 RMK AO2
KSAA 231215Z AUTO 25003KT 10SM CLR 06/00 A3030 RMK AO2
KSAA 231155Z AUTO 20004KT 10SM SCT045 06/00 A3029 RMK AO2
KSAA 231135Z AUTO 00000KT 10SM BKN045 07/00 A3029 RMK AO2
KSAA 231115Z AUTO 01007KT 292V022 10SM SCT045 07/00 A3029 RMK AO2 LTG DSNT SE
KSAA 231055Z AUTO 36012G15KT 10SM SCT049 08/00 A3029 RMK AO2 LTG DSNT E
KSAA 231035Z AUTO 36010G14KT 10SM SCT049 08/00 A3028 RMK AO2
KSAA 231015Z AUTO 35011KT 10SM SCT049 08/00 A3028 RMK AO2
KSAA 230955Z AUTO 01010G15KT 10SM CLR 09/00 A3027 RMK AO2
KSAA 230935Z AUTO 36008G16KT 10SM CLR 10/00 A3026 RMK AO2
KSAA 230915Z AUTO 36008G16KT 10SM CLR 10/00 A3025 RMK AO2
KSAA 230855Z AUTO 35009G17KT 10SM CLR 10/00 A3025 RMK AO2


Page loaded:  20:54 UTC  |   01:54 PM Pacific  |   02:54 PM Mountain  |   03:54 PM Central  |   04:54 PM Eastern

 

ADVISORIES

FORECASTS

FORECASTS

OBSERVATIONS

USER TOOLS

ABOUT US